Time;durP1;ratioP1;P1;durP2;ratioP2;P2;SDS_P1;SDS_P2;PMS_P1;PMS_P2;Temp;Humidity;BMP_temperature;BMP_pressure;BME280_temperature;BME280_humidity;BME280_pressure;Samples;Min_cycle;Max_cycle;Signal;HPM_P1;HPM_P2
2021/06/22 00:01:05;;;;;;;20.88;4.65;;;24.60;72.40;;;;;;5075372;28;20569;-75
2021/06/22 00:03:31;;;;;;;19.55;4.30;;;24.50;72.20;;;;;;5091164;28;20111;-75
2021/06/22 00:05:56;;;;;;;25.17;4.80;;;24.50;72.00;;;;;;5094788;28;20024;-75
2021/06/22 00:08:22;;;;;;;23.85;4.45;;;24.50;71.90;;;;;;5094363;28;20035;-75
2021/06/22 00:10:48;;;;;;;18.25;4.78;;;24.50;71.70;;;;;;5094874;28;20117;-75
2021/06/22 00:13:14;;;;;;;15.15;4.60;;;24.40;71.50;;;;;;5110229;28;20174;-75
2021/06/22 00:15:40;;;;;;;20.42;4.25;;;24.40;71.30;;;;;;5093696;28;20027;-75
2021/06/22 00:18:06;;;;;;;15.63;4.55;;;24.40;71.30;;;;;;5093248;28;20032;-80
2021/06/22 00:20:32;;;;;;;17.33;4.75;;;24.40;71.30;;;;;;5093934;28;20022;-75
2021/06/22 00:22:57;;;;;;;18.83;4.57;;;24.30;71.20;;;;;;5094600;28;20027;-75
2021/06/22 00:25:24;;;;;;;18.77;4.47;;;24.30;71.10;;;;;;5094306;28;20028;-75
2021/06/22 00:27:51;;;;;;;18.95;4.55;;;24.30;71.10;;;;;;5094500;28;20039;-75
2021/06/22 00:30:17;;;;;;;24.30;5.60;;;24.30;71.00;;;;;;5078660;28;20036;-75
2021/06/22 00:32:43;;;;;;;20.50;4.35;;;24.20;71.00;;;;;;5074162;28;20028;-75
2021/06/22 00:35:10;;;;;;;18.27;4.35;;;24.30;71.20;;;;;;5091589;28;20056;-76
2021/06/22 00:37:36;;;;;;;16.42;4.90;;;24.20;71.30;;;;;;5094276;28;20065;-75
2021/06/22 00:40:03;;;;;;;19.35;4.85;;;24.20;71.30;;;;;;5094099;28;20020;-75
2021/06/22 00:42:29;;;;;;;15.20;4.18;;;24.20;71.30;;;;;;5094034;28;20028;-75
2021/06/22 00:45:00;;;;;;;18.13;4.70;;;24.20;71.00;;;;;;5094095;28;20466;-75
2021/06/22 00:47:27;;;;;;;15.75;4.05;;;24.30;70.60;;;;;;5109652;28;20120;-75
2021/06/22 00:49:54;;;;;;;17.00;4.22;;;24.20;70.10;;;;;;5093955;28;20027;-75
2021/06/22 00:52:24;;;;;;;15.77;4.40;;;24.20;70.00;;;;;;5093625;28;20032;-75
2021/06/22 00:54:51;;;;;;;15.00;3.90;;;24.30;70.10;;;;;;5093965;28;20060;-75
2021/06/22 00:57:18;;;;;;;18.55;5.03;;;24.30;70.10;;;;;;5093785;28;20123;-75
2021/06/22 00:59:44;;;;;;;29.85;4.60;;;24.30;70.00;;;;;;5109804;28;20385;-75
2021/06/22 01:02:10;;;;;;;12.75;4.35;;;24.30;69.90;;;;;;5092492;28;20027;-75
2021/06/22 01:04:37;;;;;;;15.68;4.40;;;24.20;69.50;;;;;;5094037;28;20024;-75
2021/06/22 01:07:04;;;;;;;12.27;4.15;;;24.20;70.00;;;;;;5093764;28;20466;-75
2021/06/22 01:09:30;;;;;;;20.65;5.35;;;24.20;69.40;;;;;;5093952;28;20116;-75
2021/06/22 01:11:57;;;;;;;19.40;4.32;;;24.20;69.50;;;;;;5093657;28;20077;-75
2021/06/22 01:14:23;;;;;;;19.05;4.75;;;24.20;69.40;;;;;;5093705;28;20028;-75
2021/06/22 01:16:49;;;;;;;22.08;4.45;;;24.10;69.30;;;;;;5093383;28;20028;-75
2021/06/22 01:19:15;;;;;;;18.63;4.55;;;24.10;69.40;;;;;;5093169;28;20020;-76
2021/06/22 01:21:41;;;;;;;19.67;4.25;;;24.10;69.50;;;;;;5093595;28;20055;-75
2021/06/22 01:24:11;;;;;;;17.05;4.53;;;24.10;69.50;;;;;;5092958;28;20459;-76
2021/06/22 01:26:39;;;;;;;19.33;4.45;;;24.00;69.50;;;;;;5093566;28;20089;-75
2021/06/22 01:29:08;;;;;;;21.20;4.50;;;24.00;69.50;;;;;;5093657;28;20112;-75
2021/06/22 01:31:34;;;;;;;11.32;3.70;;;24.00;69.60;;;;;;5095298;28;20099;-75
2021/06/22 01:34:00;;;;;;;16.83;3.83;;;24.00;69.60;;;;;;5098078;28;20028;-75
2021/06/22 01:36:31;;;;;;;21.83;5.32;;;24.00;69.60;;;;;;5097472;28;20059;-75
2021/06/22 01:38:57;;;;;;;14.32;4.18;;;24.00;69.90;;;;;;5097737;28;20052;-75
2021/06/22 01:41:23;;;;;;;10.73;4.10;;;24.00;70.10;;;;;;5097552;28;20020;-76
2021/06/22 01:43:49;;;;;;;11.48;3.50;;;24.00;69.80;;;;;;5097847;28;20031;-75
2021/06/22 01:46:15;;;;;;;20.15;4.13;;;24.00;69.40;;;;;;5097353;28;20085;-76
2021/06/22 01:48:41;;;;;;;14.70;4.47;;;24.00;69.20;;;;;;5097889;28;20118;-76
2021/06/22 01:51:07;;;;;;;12.23;3.72;;;24.00;69.20;;;;;;5097374;28;20075;-75
2021/06/22 01:53:33;;;;;;;13.57;4.40;;;24.00;69.10;;;;;;5097124;28;20052;-75
2021/06/22 01:55:59;;;;;;;16.58;4.15;;;24.00;68.90;;;;;;5097353;28;20024;-75
2021/06/22 01:58:25;;;;;;;12.35;3.47;;;24.00;68.70;;;;;;5096793;28;20541;-75
2021/06/22 02:00:54;;;;;;;14.10;4.00;;;24.00;68.70;;;;;;5097576;28;20036;-75
2021/06/22 02:03:21;;;;;;;10.18;3.47;;;24.00;68.70;;;;;;5096824;28;20047;-76
2021/06/22 02:05:48;;;;;;;15.07;3.50;;;24.00;68.70;;;;;;5097263;28;20028;-75
2021/06/22 02:08:15;;;;;;;11.40;3.55;;;24.00;68.70;;;;;;5097120;28;20056;-76
2021/06/22 02:10:41;;;;;;;15.98;3.70;;;24.10;68.50;;;;;;5097133;28;20048;-75
2021/06/22 02:13:07;;;;;;;14.93;4.07;;;24.10;68.20;;;;;;5096783;28;20024;-75
2021/06/22 02:15:33;;;;;;;15.90;3.97;;;24.10;68.00;;;;;;5096559;28;20055;-76
2021/06/22 02:18:00;;;;;;;11.60;3.78;;;24.10;67.80;;;;;;5096755;28;20020;-75
2021/06/22 02:20:25;;;;;;;16.42;3.53;;;24.20;67.70;;;;;;5096503;28;20470;-75
2021/06/22 02:22:52;;;;;;;18.08;4.32;;;24.20;67.70;;;;;;5097415;28;20024;-75
2021/06/22 02:25:17;;;;;;;12.48;4.05;;;24.20;67.40;;;;;;5112795;28;20032;-76
2021/06/22 02:27:43;;;;;;;10.02;3.28;;;24.20;67.30;;;;;;5096561;28;20440;-75
2021/06/22 02:30:13;;;;;;;9.00;3.60;;;24.20;66.90;;;;;;5096396;28;20028;-75
2021/06/22 02:32:39;;;;;;;14.75;3.40;;;24.20;66.70;;;;;;5096309;28;20393;-75
2021/06/22 02:35:09;;;;;;;13.45;3.90;;;24.20;66.50;;;;;;5080643;28;20051;-75
2021/06/22 02:37:37;;;;;;;11.77;3.20;;;24.20;66.40;;;;;;5096380;28;20128;-76
2021/06/22 02:40:04;;;;;;;11.40;3.80;;;24.20;66.30;;;;;;5069696;28;20486;-76
2021/06/22 02:42:30;;;;;;;10.73;3.17;;;24.30;66.20;;;;;;5063954;28;20016;-75
2021/06/22 02:44:56;;;;;;;14.70;3.78;;;24.30;66.20;;;;;;5066934;28;20080;-74
2021/06/22 02:47:23;;;;;;;14.52;3.90;;;24.30;66.10;;;;;;5063576;28;20024;-76
2021/06/22 02:49:49;;;;;;;14.13;3.70;;;24.30;66.00;;;;;;5061766;28;20520;-75
2021/06/22 02:52:15;;;;;;;12.93;3.45;;;24.30;65.90;;;;;;5064438;28;20021;-75
2021/06/22 02:54:40;;;;;;;16.90;3.33;;;24.30;65.80;;;;;;5063886;28;20035;-76
2021/06/22 02:57:10;;;;;;;14.25;3.60;;;24.30;65.80;;;;;;5065479;28;20056;-75
2021/06/22 02:59:37;;;;;;;14.98;3.53;;;24.30;65.70;;;;;;5065021;28;20040;-75
2021/06/22 03:02:04;;;;;;;23.17;3.80;;;24.40;65.80;;;;;;5063539;28;20025;-77
2021/06/22 03:04:30;;;;;;;14.23;3.63;;;24.40;65.70;;;;;;5065121;28;20020;-75
2021/06/22 03:06:56;;;;;;;14.23;3.55;;;24.40;65.60;;;;;;5064473;28;20434;-76
2021/06/22 03:09:22;;;;;;;20.52;3.95;;;24.40;65.60;;;;;;5063650;28;20130;-76
2021/06/22 03:11:49;;;;;;;11.73;3.38;;;24.50;65.60;;;;;;5063488;28;20027;-74
2021/06/22 03:14:15;;;;;;;11.05;3.08;;;24.50;65.50;;;;;;5063992;28;20024;-76
2021/06/22 03:16:41;;;;;;;14.93;4.30;;;24.60;65.30;;;;;;5065151;28;20089;-77
2021/06/22 03:19:06;;;;;;;14.25;3.40;;;24.60;65.20;;;;;;5063250;28;20017;-76
2021/06/22 03:21:32;;;;;;;15.30;3.33;;;24.70;65.20;;;;;;5065691;28;20021;-75
2021/06/22 03:23:58;;;;;;;11.73;4.20;;;24.70;65.10;;;;;;5063960;28;20568;-75
2021/06/22 03:26:23;;;;;;;11.55;3.72;;;24.70;65.10;;;;;;5065181;28;20060;-76
2021/06/22 03:28:49;;;;;;;16.58;3.67;;;24.80;65.20;;;;;;5062210;28;20032;-75
2021/06/22 03:31:16;;;;;;;11.90;3.28;;;24.80;65.20;;;;;;5063854;28;20400;-75
2021/06/22 03:33:41;;;;;;;12.38;3.83;;;24.80;65.20;;;;;;5063095;28;20108;-76
2021/06/22 03:36:07;;;;;;;13.98;3.40;;;24.80;65.30;;;;;;5063472;28;20187;-75
2021/06/22 03:38:33;;;;;;;10.60;3.22;;;24.80;65.30;;;;;;5063338;28;20028;-76
2021/06/22 03:40:59;;;;;;;15.45;4.10;;;24.80;65.30;;;;;;5063094;28;20029;-75
2021/06/22 03:43:25;;;;;;;10.77;3.72;;;24.90;65.30;;;;;;5064679;28;20085;-76
2021/06/22 03:45:52;;;;;;;13.32;3.80;;;25.00;65.30;;;;;;5062732;28;20141;-76
2021/06/22 03:48:18;;;;;;;12.18;3.60;;;25.00;65.30;;;;;;5063343;28;20366;-76
2021/06/22 03:50:44;;;;;;;13.30;3.63;;;25.00;65.20;;;;;;5064876;28;20058;-75
2021/06/22 03:53:09;;;;;;;14.65;3.80;;;25.10;65.20;;;;;;5062240;28;20021;-74
2021/06/22 03:55:35;;;;;;;13.10;3.35;;;25.20;65.00;;;;;;5061912;28;20039;-74
2021/06/22 03:58:03;;;;;;;14.13;3.78;;;25.20;64.90;;;;;;5062665;28;20090;-77
2021/06/22 04:00:30;;;;;;;17.38;4.05;;;25.30;64.60;;;;;;5061860;28;20025;-75
2021/06/22 04:02:58;;;;;;;11.68;3.85;;;25.40;64.30;;;;;;5054504;28;20488;-75
2021/06/22 04:05:24;;;;;;;13.80;4.03;;;25.40;64.10;;;;;;5054576;28;20215;-75
2021/06/22 04:07:51;;;;;;;17.65;4.35;;;25.40;64.00;;;;;;5054368;28;20127;-75
2021/06/22 04:10:17;;;;;;;16.05;3.60;;;25.50;63.80;;;;;;5054411;28;20079;-77
2021/06/22 04:12:43;;;;;;;20.20;4.20;;;25.60;63.70;;;;;;5054113;28;20025;-74
2021/06/22 04:15:10;;;;;;;17.02;3.60;;;25.70;63.60;;;;;;5054490;28;20135;-75
2021/06/22 04:17:36;;;;;;;11.75;4.03;;;25.80;63.40;;;;;;5064785;28;20548;-74
2021/06/22 04:20:02;;;;;;;15.57;4.00;;;25.90;62.90;;;;;;5073994;28;20021;-74
2021/06/22 04:22:28;;;;;;;11.73;3.90;;;26.00;62.90;;;;;;5071047;28;20033;-76
2021/06/22 04:24:54;;;;;;;14.80;3.80;;;26.00;62.40;;;;;;5063816;28;20359;-76
2021/06/22 04:27:20;;;;;;;12.43;3.67;;;26.00;62.10;;;;;;5061936;28;20528;-75
2021/06/22 04:29:47;;;;;;;6.97;3.40;;;26.10;62.10;;;;;;5067370;28;20032;-76
2021/06/22 04:32:13;;;;;;;16.60;4.38;;;26.10;62.00;;;;;;5060038;28;20086;-76
2021/06/22 04:34:39;;;;;;;11.65;3.58;;;26.00;61.60;;;;;;5056866;28;20029;-75
2021/06/22 04:37:05;;;;;;;14.38;3.80;;;26.00;61.50;;;;;;5053713;28;20025;-76
2021/06/22 04:39:31;;;;;;;14.05;3.80;;;26.00;61.50;;;;;;5052753;28;20028;-76
2021/06/22 04:41:56;;;;;;;11.70;3.90;;;26.00;61.80;;;;;;5053924;28;20106;-76
2021/06/22 04:44:22;;;;;;;18.77;4.50;;;25.90;61.60;;;;;;5053542;28;20036;-76
2021/06/22 04:46:48;;;;;;;13.90;4.00;;;25.90;61.60;;;;;;5064151;28;20115;-76
2021/06/22 04:49:13;;;;;;;17.27;4.53;;;25.80;61.70;;;;;;5073981;28;20033;-76
2021/06/22 04:51:39;;;;;;;16.38;3.88;;;25.80;61.80;;;;;;5073763;28;20481;-76
2021/06/22 04:54:07;;;;;;;23.48;4.38;;;25.80;61.90;;;;;;5072394;28;20024;-76
2021/06/22 04:56:33;;;;;;;20.15;4.30;;;25.80;61.70;;;;;;5073557;28;20024;-75
2021/06/22 04:59:00;;;;;;;15.55;4.32;;;25.80;61.30;;;;;;5073961;28;20044;-75
2021/06/22 05:01:26;;;;;;;17.25;3.80;;;25.90;60.90;;;;;;5073551;28;20416;-75
2021/06/22 05:03:52;;;;;;;19.00;4.13;;;25.90;60.60;;;;;;5073307;28;20069;-76
2021/06/22 05:06:18;;;;;;;16.55;4.10;;;25.90;60.30;;;;;;5073035;28;20032;-76
2021/06/22 05:08:44;;;;;;;21.55;3.97;;;25.90;60.10;;;;;;5073394;28;20035;-75
2021/06/22 05:11:10;;;;;;;18.33;4.57;;;26.00;60.00;;;;;;5073576;28;20386;-75
2021/06/22 05:13:37;;;;;;;18.80;4.00;;;26.10;60.00;;;;;;5073815;28;20147;-75
2021/06/22 05:16:03;;;;;;;23.48;5.07;;;26.20;59.90;;;;;;5073633;28;20028;-76
2021/06/22 05:18:29;;;;;;;29.95;5.13;;;26.30;59.70;;;;;;5073212;28;20028;-76
2021/06/22 05:20:55;;;;;;;28.90;4.95;;;26.40;59.30;;;;;;5073309;28;20033;-76
2021/06/22 05:23:21;;;;;;;16.73;3.67;;;26.60;59.20;;;;;;5073560;28;20020;-80
2021/06/22 05:25:46;;;;;;;21.25;4.32;;;26.80;58.90;;;;;;5065520;28;20064;-75
2021/06/22 05:28:12;;;;;;;19.95;4.03;;;27.00;58.50;;;;;;5063372;28;20029;-75
2021/06/22 05:30:38;;;;;;;24.60;4.53;;;27.20;58.30;;;;;;5060177;28;20055;-76
2021/06/22 05:33:05;;;;;;;29.60;4.88;;;27.40;58.10;;;;;;5061472;28;20466;-76
2021/06/22 05:35:31;;;;;;;23.67;4.38;;;27.50;57.80;;;;;;5062081;28;20370;-77
2021/06/22 05:37:57;;;;;;;18.27;4.25;;;27.70;57.30;;;;;;5060205;28;20463;-75
2021/06/22 05:40:23;;;;;;;24.98;4.35;;;27.80;57.20;;;;;;5063210;28;20526;-76
2021/06/22 05:42:49;;;;;;;20.98;4.25;;;27.90;57.10;;;;;;5061110;28;20356;-76
2021/06/22 05:45:15;;;;;;;26.25;4.78;;;27.90;56.80;;;;;;5061829;28;20025;-75
2021/06/22 05:47:41;;;;;;;26.20;5.03;;;27.90;56.80;;;;;;5066192;28;20060;-76
2021/06/22 05:50:09;;;;;;;25.85;4.32;;;27.90;56.80;;;;;;5073963;28;20478;-76
2021/06/22 05:52:35;;;;;;;36.63;5.47;;;28.00;56.70;;;;;;5072773;28;20074;-76
2021/06/22 05:55:01;;;;;;;28.35;5.30;;;28.00;56.10;;;;;;5072958;28;20051;-76
2021/06/22 05:57:27;;;;;;;25.33;5.22;;;28.00;56.60;;;;;;5072877;28;20371;-75
2021/06/22 05:59:52;;;;;;;24.13;4.75;;;28.00;55.60;;;;;;5072212;28;20029;-76
2021/06/22 06:02:18;;;;;;;22.98;5.07;;;28.00;55.70;;;;;;5072781;28;20028;-76
2021/06/22 06:04:44;;;;;;;35.03;5.60;;;28.10;55.90;;;;;;5072587;28;20154;-76
2021/06/22 06:07:10;;;;;;;26.50;4.63;;;28.10;56.10;;;;;;5073948;28;20037;-77
2021/06/22 06:09:37;;;;;;;31.88;4.95;;;28.10;56.20;;;;;;5070638;28;20029;-76
2021/06/22 06:12:03;;;;;;;32.70;5.22;;;28.10;56.30;;;;;;5072271;28;20028;-76
2021/06/22 06:14:28;;;;;;;24.95;5.13;;;28.20;56.50;;;;;;5071464;28;20115;-76
2021/06/22 06:16:54;;;;;;;30.38;4.72;;;28.20;56.20;;;;;;5073351;28;20457;-75
2021/06/22 06:19:20;;;;;;;28.92;4.68;;;28.20;55.90;;;;;;5076386;28;20096;-75
2021/06/22 06:21:47;;;;;;;52.10;5.95;;;28.30;55.80;;;;;;5076612;28;20414;-75
2021/06/22 06:24:12;;;;;;;37.72;5.30;;;28.30;55.80;;;;;;5076350;28;20481;-74
2021/06/22 06:26:47;;;;;;;27.52;5.97;;;28.30;55.80;;;;;;5085997;28;20036;-75
2021/06/22 06:29:40;;;;;;;29.08;5.10;;;28.40;55.80;;;;;;5076518;28;20025;-76
2021/06/22 06:32:06;;;;;;;29.80;5.40;;;28.40;56.00;;;;;;5076304;28;20455;-76
2021/06/22 06:34:32;;;;;;;33.08;5.95;;;28.50;56.20;;;;;;5076079;28;20100;-75
2021/06/22 06:36:57;;;;;;;33.72;6.20;;;28.60;56.30;;;;;;5075866;28;20024;-75
2021/06/22 06:39:23;;;;;;;42.75;6.30;;;28.70;56.20;;;;;;5075141;28;20385;-75
2021/06/22 06:41:50;;;;;;;48.40;6.80;;;28.80;55.90;;;;;;5076045;28;20070;-76
2021/06/22 06:44:15;;;;;;;41.53;6.80;;;28.90;55.70;;;;;;5076380;28;20043;-75
2021/06/22 06:46:41;;;;;;;31.92;5.63;;;28.90;55.50;;;;;;5076040;28;20028;-76
2021/06/22 06:49:07;;;;;;;50.83;7.15;;;29.00;55.60;;;;;;5076229;28;20051;-75
2021/06/22 06:51:33;;;;;;;40.53;5.93;;;29.10;55.50;;;;;;5075132;28;20086;-76
2021/06/22 06:53:58;;;;;;;66.22;7.55;;;29.20;55.20;;;;;;5074090;28;20025;-75
2021/06/22 06:56:24;;;;;;;44.72;6.75;;;29.20;54.60;;;;;;5075110;28;20105;-75
2021/06/22 06:58:50;;;;;;;43.72;6.88;;;29.20;54.10;;;;;;5075889;28;20541;-76
2021/06/22 07:01:16;;;;;;;56.30;8.23;;;29.30;53.70;;;;;;5075976;28;20024;-75
2021/06/22 07:03:45;;;;;;;43.55;7.45;;;29.30;53.20;;;;;;5076216;28;20071;-75
2021/06/22 07:06:14;;;;;;;53.72;7.30;;;29.40;53.00;;;;;;5062300;28;20060;-75
2021/06/22 07:08:40;;;;;;;41.53;7.30;;;29.40;52.60;;;;;;5061756;28;20498;-76
2021/06/22 07:11:06;;;;;;;39.33;6.35;;;29.50;52.20;;;;;;5065772;28;20412;-75
2021/06/22 07:13:32;;;;;;;47.47;6.75;;;29.50;52.00;;;;;;5064200;28;20096;-77
2021/06/22 07:15:58;;;;;;;47.00;7.10;;;29.60;52.00;;;;;;5066926;28;20033;-76
2021/06/22 07:18:23;;;;;;;47.03;7.70;;;29.70;52.10;;;;;;5075633;28;20076;-77
2021/06/22 07:20:49;;;;;;;41.53;7.03;;;29.70;51.80;;;;;;5080620;28;20013;-76
2021/06/22 07:23:15;;;;;;;46.88;7.85;;;29.70;51.70;;;;;;5082327;28;20028;-76
2021/06/22 07:25:41;;;;;;;42.35;8.05;;;29.80;51.80;;;;;;5082854;28;20035;-77
2021/06/22 07:28:07;;;;;;;48.55;7.20;;;29.90;51.90;;;;;;5081151;28;20108;-81
2021/06/22 07:30:33;;;;;;;39.88;8.13;;;30.00;51.50;;;;;;5075915;28;20047;-75
2021/06/22 07:32:59;;;;;;;48.30;7.28;;;30.10;51.20;;;;;;5080670;28;20025;-77
2021/06/22 07:35:28;;;;;;;44.65;7.97;;;30.10;51.10;;;;;;5078432;28;20016;-76
2021/06/22 07:37:53;;;;;;;65.90;11.30;;;30.10;51.00;;;;;;5079448;28;20021;-75
2021/06/22 07:40:19;;;;;;;61.47;9.02;;;30.10;50.90;;;;;;5073739;28;20032;-77
2021/06/22 07:42:46;;;;;;;62.72;7.72;;;30.20;50.80;;;;;;5078602;28;20035;-75
2021/06/22 07:45:12;;;;;;;46.55;7.40;;;30.20;50.60;;;;;;5075526;28;20044;-76
2021/06/22 07:47:38;;;;;;;57.22;7.93;;;30.20;50.80;;;;;;5064713;28;20152;-77
2021/06/22 07:50:07;;;;;;;48.60;7.95;;;30.20;50.80;;;;;;5065245;28;20103;-75
2021/06/22 07:52:33;;;;;;;65.95;8.82;;;30.30;50.90;;;;;;5063947;28;20021;-75
2021/06/22 07:54:58;;;;;;;46.75;8.43;;;30.30;50.90;;;;;;5062577;28;20043;-76
2021/06/22 07:57:24;;;;;;;66.82;8.63;;;30.30;50.50;;;;;;5064222;28;20394;-75
2021/06/22 07:59:50;;;;;;;57.40;7.78;;;30.30;50.60;;;;;;5061823;28;20024;-76
2021/06/22 08:02:15;;;;;;;52.20;8.25;;;30.30;51.00;;;;;;5055102;28;20414;-76
2021/06/22 08:04:41;;;;;;;62.97;9.18;;;30.40;51.30;;;;;;5054767;28;20033;-76
2021/06/22 08:07:07;;;;;;;48.42;8.27;;;30.40;51.10;;;;;;5055274;28;20059;-76
2021/06/22 08:09:33;;;;;;;59.33;8.30;;;30.50;51.00;;;;;;5054960;28;20033;-76
2021/06/22 08:11:59;;;;;;;50.53;8.05;;;30.50;51.00;;;;;;5053373;28;20035;-75
2021/06/22 08:14:25;;;;;;;46.45;8.20;;;30.60;51.10;;;;;;5053387;28;20052;-76
2021/06/22 08:16:51;;;;;;;60.08;8.90;;;30.60;51.40;;;;;;5054196;28;20056;-76
2021/06/22 08:19:16;;;;;;;58.40;7.28;;;30.60;51.60;;;;;;5055000;28;20028;-75
2021/06/22 08:21:42;;;;;;;62.20;8.85;;;30.70;51.60;;;;;;5054359;28;20027;-75
2021/06/22 08:24:08;;;;;;;56.03;7.57;;;30.80;51.60;;;;;;5054067;28;20032;-76
2021/06/22 08:26:34;;;;;;;47.15;8.40;;;30.70;51.60;;;;;;5052962;28;20482;-76
2021/06/22 08:29:00;;;;;;;55.45;8.05;;;30.70;51.70;;;;;;5054181;28;20075;-76
2021/06/22 08:31:26;;;;;;;52.88;8.15;;;30.80;51.80;;;;;;5053866;28;20029;-76
2021/06/22 08:33:52;;;;;;;65.88;8.60;;;30.90;51.90;;;;;;5054170;28;20595;-75
2021/06/22 08:36:18;;;;;;;49.92;8.70;;;31.00;51.90;;;;;;5064370;28;20024;-75
2021/06/22 08:38:44;;;;;;;66.22;10.50;;;31.10;51.90;;;;;;5092528;28;20051;-75
2021/06/22 08:41:13;;;;;;;60.28;9.95;;;31.30;51.70;;;;;;5081129;28;20106;-75
2021/06/22 08:43:40;;;;;;;59.05;8.80;;;31.30;51.30;;;;;;5072631;28;20029;-75
2021/06/22 08:46:07;;;;;;;62.40;9.02;;;31.50;51.30;;;;;;5073404;28;20363;-75
2021/06/22 08:48:33;;;;;;;56.05;8.30;;;31.60;51.20;;;;;;5075232;28;20378;-75
2021/06/22 08:50:59;;;;;;;69.07;10.52;;;31.80;50.80;;;;;;5073653;28;20100;-75
2021/06/22 08:53:24;;;;;;;58.08;8.65;;;32.10;50.50;;;;;;5073347;28;20025;-75
2021/06/22 08:55:50;;;;;;;65.20;9.82;;;32.30;50.40;;;;;;5073460;28;20064;-75
2021/06/22 08:58:18;;;;;;;63.88;11.38;;;32.50;50.20;;;;;;5092427;28;20056;-75
2021/06/22 09:00:48;;;;;;;62.58;10.15;;;32.70;50.20;;;;;;5093792;28;20115;-75
2021/06/22 09:03:15;;;;;;;72.07;9.70;;;32.80;49.80;;;;;;5093786;28;20046;-75
2021/06/22 09:05:48;;;;;;;56.55;9.27;;;33.00;49.50;;;;;;5093229;28;20497;-75
2021/06/22 09:08:48;;;;;;;68.85;9.73;;;33.20;48.90;;;;;;5090230;28;20101;-75
2021/06/22 09:11:15;;;;;;;60.65;9.25;;;33.40;48.40;;;;;;5073635;28;20029;-76
2021/06/22 09:13:44;;;;;;;63.88;9.77;;;33.60;48.20;;;;;;5071842;28;20029;-75
2021/06/22 09:16:14;;;;;;;72.63;10.20;;;33.90;47.90;;;;;;5073075;28;20131;-74
2021/06/22 09:18:45;;;;;;;66.55;9.90;;;34.10;47.60;;;;;;5072194;28;20462;-74
2021/06/22 09:21:24;;;;;;;63.08;11.02;;;34.30;47.40;;;;;;5073346;28;20048;-75
2021/06/22 09:23:52;;;;;;;62.58;9.55;;;34.60;47.20;;;;;;5073449;28;20029;-76
2021/06/22 09:26:32;;;;;;;65.07;9.38;;;34.80;47.30;;;;;;5073383;28;20124;-75
2021/06/22 09:29:13;;;;;;;65.95;10.32;;;35.20;47.10;;;;;;5073350;28;20482;-76
2021/06/22 09:31:51;;;;;;;62.20;9.40;;;35.50;46.70;;;;;;5073184;28;20028;-83
2021/06/22 09:34:18;;;;;;;70.93;9.88;;;35.80;46.10;;;;;;5082634;28;20025;-82
2021/06/22 09:36:53;;;;;;;61.78;11.25;;;36.10;46.00;;;;;;5073285;28;20054;-82
2021/06/22 09:39:20;;;;;;;60.35;10.82;;;36.40;44.80;;;;;;5089273;28;20051;-81
2021/06/22 09:41:46;;;;;;;57.95;10.10;;;36.70;44.40;;;;;;5073057;28;20052;-83
2021/06/22 09:44:14;;;;;;;89.70;12.43;;;37.20;44.00;;;;;;5073096;28;20031;-85
2021/06/22 09:46:56;;;;;;;69.10;11.50;;;37.60;43.50;;;;;;5073127;28;20016;-82
2021/06/22 09:49:24;;;;;;;72.75;10.75;;;38.00;43.10;;;;;;5073765;28;20024;-83
2021/06/22 09:52:03;;;;;;;63.17;9.88;;;38.60;42.50;;;;;;5073620;28;20090;-82
2021/06/22 09:54:34;;;;;;;61.28;10.82;;;39.10;42.10;;;;;;5092700;28;20035;-84
2021/06/22 09:57:21;;;;;;;66.55;10.88;;;39.60;41.70;;;;;;5076793;28;20493;-83
2021/06/22 09:59:49;;;;;;;81.90;11.05;;;40.20;41.30;;;;;;5077283;28;20356;-83
2021/06/22 10:02:16;;;;;;;69.93;11.57;;;40.80;40.70;;;;;;5092829;28;20028;-82
2021/06/22 10:05:07;;;;;;;61.08;11.23;;;41.10;40.10;;;;;;5076704;28;20033;-83
2021/06/22 10:07:34;;;;;;;68.90;10.85;;;41.50;39.40;;;;;;5077522;28;20025;-82
2021/06/22 10:10:03;;;;;;;89.60;12.50;;;42.00;39.00;;;;;;5077005;28;20025;-83
2021/06/22 10:12:30;;;;;;;73.15;10.90;;;42.30;38.50;;;;;;5076578;28;20037;-83
2021/06/22 10:15:01;;;;;;;69.75;12.48;;;42.60;38.40;;;;;;5076682;28;20385;-82
2021/06/22 10:17:29;;;;;;;73.15;11.40;;;42.90;38.10;;;;;;5069578;28;20029;-84
2021/06/22 10:19:58;;;;;;;65.75;10.57;;;43.10;37.80;;;;;;5057683;28;20526;-83
2021/06/22 10:22:27;;;;;;;64.38;10.38;;;43.50;37.50;;;;;;5057182;28;20040;-83
2021/06/22 10:24:57;;;;;;;68.95;12.00;;;43.60;37.10;;;;;;5056284;28;20450;-83
2021/06/22 10:27:23;;;;;;;85.07;11.57;;;43.70;37.00;;;;;;5056589;28;20017;-83
2021/06/22 10:29:51;;;;;;;79.15;13.00;;;43.90;36.70;;;;;;5056482;28;20021;-83
2021/06/22 10:32:18;;;;;;;71.32;12.25;;;44.10;36.50;;;;;;5056456;28;20029;-83
2021/06/22 10:34:56;;;;;;;90.30;14.23;;;44.30;36.40;;;;;;5056272;28;20075;-83
2021/06/22 10:37:34;;;;;;;71.88;11.52;;;44.50;35.90;;;;;;5056254;28;20487;-83
2021/06/22 10:40:14;;;;;;;87.68;12.80;;;44.80;35.70;;;;;;5056500;28;20394;-82
2021/06/22 10:42:47;;;;;;;84.13;13.55;;;45.10;35.90;;;;;;5056784;28;20025;-84
2021/06/22 10:45:13;;;;;;;80.97;11.90;;;45.30;35.60;;;;;;5056779;28;20142;-83
2021/06/22 10:47:44;;;;;;;87.90;13.68;;;45.40;35.50;;;;;;5063660;28;20390;-84
2021/06/22 10:50:23;;;;;;;83.22;12.73;;;45.50;35.10;;;;;;5074927;28;20028;-83
2021/06/22 10:53:00;;;;;;;73.63;12.95;;;45.60;35.10;;;;;;5076241;28;20051;-82
2021/06/22 10:55:28;;;;;;;82.35;11.93;;;45.70;35.00;;;;;;5076510;28;20037;-82
2021/06/22 10:58:09;;;;;;;71.15;12.70;;;45.90;35.00;;;;;;5075725;28;20051;-86
2021/06/22 11:00:37;;;;;;;75.03;13.57;;;46.00;34.80;;;;;;5076592;28;20024;-82
2021/06/22 11:03:07;;;;;;;75.88;13.15;;;46.20;34.80;;;;;;5075729;28;20462;-82
2021/06/22 11:05:35;;;;;;;83.00;13.88;;;46.30;34.30;;;;;;5076019;28;20050;-83
2021/06/22 11:08:16;;;;;;;72.70;12.43;;;46.40;34.00;;;;;;5075976;28;20417;-85
2021/06/22 11:11:07;;;;;;;95.32;13.85;;;46.70;33.90;;;;;;5086438;28;20033;-82
2021/06/22 11:13:41;;;;;;;80.53;14.13;;;46.80;33.50;;;;;;5091563;28;20032;-82
2021/06/22 11:16:13;;;;;;;89.38;14.57;;;47.00;33.20;;;;;;5076375;28;20460;-84
2021/06/22 11:18:54;;;;;;;95.22;14.13;;;47.00;33.00;;;;;;5061741;28;20467;-85
2021/06/22 11:21:25;;;;;;;90.22;16.25;;;47.10;32.90;;;;;;5055879;28;20383;-82
2021/06/22 11:24:09;;;;;;;81.60;13.55;;;47.20;33.00;;;;;;5054692;28;20036;-82
2021/06/22 11:26:41;;;;;;;83.47;15.48;;;47.30;32.80;;;;;;5054035;28;20772;-86
2021/06/22 11:29:11;;;;;;;95.93;13.50;;;47.50;32.90;;;;;;5055642;28;20029;-83
2021/06/22 11:31:39;;;;;;;89.50;14.40;;;47.70;32.80;;;;;;5055529;28;20538;-84
2021/06/22 11:34:09;;;;;;;91.75;15.45;;;47.90;32.50;;;;;;5055353;28;20033;-84
2021/06/22 11:36:42;;;;;;;91.70;14.77;;;48.00;32.20;;;;;;5055856;28;20029;-84
2021/06/22 11:39:24;;;;;;;88.00;15.10;;;48.00;32.00;;;;;;5055430;28;20089;-84
2021/06/22 11:42:10;;;;;;;101.10;15.60;;;48.00;31.90;;;;;;5057085;28;20028;-82
2021/06/22 11:44:50;;;;;;;88.20;14.98;;;47.80;32.10;;;;;;5058076;28;20387;-82
2021/06/22 11:47:24;;;;;;;99.05;14.88;;;47.60;32.20;;;;;;5063044;28;20024;-83
2021/06/22 11:49:50;;;;;;;89.13;13.55;;;47.60;32.30;;;;;;5072347;28;20027;-82
2021/06/22 11:52:19;;;;;;;102.68;16.65;;;47.60;32.20;;;;;;5057504;28;20086;-84
2021/06/22 11:54:48;;;;;;;97.18;15.70;;;47.60;32.70;;;;;;5067774;28;20070;-84
2021/06/22 11:57:22;;;;;;;91.43;14.05;;;47.40;31.90;;;;;;5059883;28;20037;-84
2021/06/22 11:59:48;;;;;;;104.05;15.50;;;47.20;31.40;;;;;;5065082;28;20020;-84
2021/06/22 12:02:16;;;;;;;98.25;16.30;;;46.70;31.60;;;;;;5068125;28;20060;-83
2021/06/22 12:04:43;;;;;;;93.90;15.25;;;46.40;31.90;;;;;;5090641;28;20032;-83
2021/06/22 12:07:12;;;;;;;85.05;14.15;;;46.10;32.10;;;;;;5073881;28;20036;-83
2021/06/22 12:09:43;;;;;;;106.47;16.27;;;46.10;32.60;;;;;;5074876;28;20024;-84
2021/06/22 12:12:09;;;;;;;96.50;16.02;;;46.40;32.60;;;;;;5090227;28;20031;-83
2021/06/22 12:14:41;;;;;;;100.88;15.38;;;46.70;32.40;;;;;;5074303;28;20021;-83
2021/06/22 12:17:18;;;;;;;119.45;16.70;;;47.00;32.10;;;;;;5075200;28;20040;-84
2021/06/22 12:19:45;;;;;;;119.72;16.80;;;47.40;31.90;;;;;;5070940;28;20070;-84
2021/06/22 12:22:13;;;;;;;94.07;15.32;;;47.60;31.40;;;;;;5055599;28;20025;-83
2021/06/22 12:24:41;;;;;;;98.40;16.23;;;47.70;31.10;;;;;;5089651;28;20051;-83
2021/06/22 12:27:07;;;;;;;107.80;16.67;;;48.00;30.90;;;;;;5095746;28;20028;-82
2021/06/22 12:29:34;;;;;;;84.75;13.80;;;48.00;31.60;;;;;;5095588;28;20030;-83
2021/06/22 12:32:01;;;;;;;104.15;15.32;;;48.00;30.80;;;;;;5094914;28;20086;-83
2021/06/22 12:34:29;;;;;;;103.70;15.70;;;48.00;30.70;;;;;;5088354;28;20047;-83
2021/06/22 12:36:56;;;;;;;125.03;16.63;;;48.10;30.60;;;;;;5074045;28;20056;-83